Time;durP1;ratioP1;P1;durP2;ratioP2;P2;SDS_P1;SDS_P2;PMS_P1;PMS_P2;Temp;Humidity;BMP_temperature;BMP_pressure;BME280_temperature;BME280_humidity;BME280_pressure;Samples;Min_cycle;Max_cycle;Signal;HPM_P1;HPM_P2
2021/12/03 00:00:17;;;;;;;12.52;6.07;;;;;;;;;;5061108;28;20205;-83
2021/12/03 00:02:43;;;;;;;10.90;7.70;;;;;;;;;;5062096;28;20407;-83
2021/12/03 00:05:09;;;;;;;8.63;5.70;;;;;;;;;;5060783;28;20193;-83
2021/12/03 00:07:37;;;;;;;11.65;6.68;;;;;;;;;;5061427;28;20175;-83
2021/12/03 00:10:05;;;;;;;10.45;7.07;;;;;;;;;;5061939;28;20203;-84
2021/12/03 00:12:31;;;;;;;10.43;6.80;;;;;;;;;;5061441;28;20189;-83
2021/12/03 00:14:57;;;;;;;8.77;6.00;;;;;;;;;;5061663;28;20185;-83
2021/12/03 00:17:23;;;;;;;7.05;5.20;;;;;;;;;;5059602;28;20191;-83
2021/12/03 00:19:49;;;;;;;7.25;6.35;;;;;;;;;;5061214;28;20200;-82
2021/12/03 00:22:15;;;;;;;8.82;5.47;;;;;;;;;;5060066;28;20177;-82
2021/12/03 00:24:41;;;;;;;9.55;5.35;;;;;;;;;;5058679;28;20177;-83
2021/12/03 00:27:07;;;;;;;10.15;5.35;;;;;;;;;;5061197;28;20666;-83
2021/12/03 00:29:33;;;;;;;7.25;6.47;;;;;;;;;;5060799;28;20196;-83
2021/12/03 00:31:59;;;;;;;9.73;6.70;;;;;;;;;;5062115;28;20206;-83
2021/12/03 00:34:27;;;;;;;8.98;5.97;;;;;;;;;;5061303;28;20177;-83
2021/12/03 00:36:53;;;;;;;7.55;6.53;;;;;;;;;;5059279;28;20196;-83
2021/12/03 00:39:19;;;;;;;11.27;5.93;;;;;;;;;;5060835;28;20205;-82
2021/12/03 00:41:48;;;;;;;9.68;6.10;;;;;;;;;;5059386;28;20353;-82
2021/12/03 00:44:14;;;;;;;11.93;5.78;;;;;;;;;;5044380;28;20173;-83
2021/12/03 00:46:40;;;;;;;8.75;5.40;;;;;;;;;;5061445;28;20193;-83
2021/12/03 00:49:06;;;;;;;9.45;6.03;;;;;;;;;;5061009;28;20196;-83
2021/12/03 00:51:32;;;;;;;8.60;5.65;;;;;;;;;;5062662;28;20196;-83
2021/12/03 00:53:58;;;;;;;10.10;6.03;;;;;;;;;;5065303;28;20184;-83
2021/12/03 00:56:24;;;;;;;6.07;4.82;;;;;;;;;;5065003;28;20185;-81
2021/12/03 00:58:50;;;;;;;9.20;6.13;;;;;;;;;;5064709;28;20201;-82
2021/12/03 01:01:17;;;;;;;6.50;4.50;;;;;;;;;;5064158;28;20223;-83
2021/12/03 01:03:43;;;;;;;6.82;4.60;;;;;;;;;;5064781;28;20188;-84
2021/12/03 01:06:09;;;;;;;8.02;5.82;;;;;;;;;;5065005;28;20521;-84
2021/12/03 01:08:36;;;;;;;9.05;5.55;;;;;;;;;;5064649;28;20379;-82
2021/12/03 01:11:03;;;;;;;5.70;4.90;;;;;;;;;;5063880;28;20173;-83
2021/12/03 01:13:29;;;;;;;8.73;5.18;;;;;;;;;;5063677;28;20172;-83
2021/12/03 01:15:55;;;;;;;9.23;5.20;;;;;;;;;;5061652;28;20191;-83
2021/12/03 01:18:21;;;;;;;11.05;5.25;;;;;;;;;;5064072;28;20252;-83
2021/12/03 01:20:47;;;;;;;7.10;5.00;;;;;;;;;;5064718;28;20181;-83
2021/12/03 01:23:14;;;;;;;6.55;4.72;;;;;;;;;;5048119;28;20181;-83
2021/12/03 01:25:40;;;;;;;7.93;5.72;;;;;;;;;;5065986;28;20184;-83
2021/12/03 01:28:07;;;;;;;7.18;4.47;;;;;;;;;;5063834;28;20203;-83
2021/12/03 01:30:33;;;;;;;7.68;4.50;;;;;;;;;;5064137;28;20177;-83
2021/12/03 01:33:00;;;;;;;8.65;3.75;;;;;;;;;;5064247;28;20192;-83
2021/12/03 01:35:26;;;;;;;7.00;4.35;;;;;;;;;;5064267;28;20205;-83
2021/12/03 01:37:52;;;;;;;7.00;4.75;;;;;;;;;;5064778;28;20195;-83
2021/12/03 01:40:21;;;;;;;10.70;5.28;;;;;;;;;;5064332;28;20201;-83
2021/12/03 01:42:47;;;;;;;6.78;4.78;;;;;;;;;;5059753;28;20188;-83
2021/12/03 01:45:15;;;;;;;5.35;4.82;;;;;;;;;;5064418;28;20185;-83
2021/12/03 01:47:42;;;;;;;7.88;4.60;;;;;;;;;;5062172;28;20181;-84
2021/12/03 01:50:09;;;;;;;7.50;4.28;;;;;;;;;;5063806;28;20575;-83
2021/12/03 01:52:35;;;;;;;5.90;4.53;;;;;;;;;;5064468;28;20180;-84
2021/12/03 01:55:02;;;;;;;6.53;3.08;;;;;;;;;;5064735;28;20195;-82
2021/12/03 01:57:28;;;;;;;5.13;3.55;;;;;;;;;;5063792;28;20300;-83
2021/12/03 01:59:54;;;;;;;5.80;3.63;;;;;;;;;;5063722;28;20208;-83
2021/12/03 02:02:20;;;;;;;6.90;4.45;;;;;;;;;;5061475;28;20194;-83
2021/12/03 02:04:46;;;;;;;9.43;4.78;;;;;;;;;;5065793;28;20237;-82
2021/12/03 02:07:12;;;;;;;7.95;3.95;;;;;;;;;;5062644;28;20177;-83
2021/12/03 02:09:38;;;;;;;6.18;3.75;;;;;;;;;;5062074;28;20193;-83
2021/12/03 02:12:04;;;;;;;9.43;5.10;;;;;;;;;;5062322;28;20185;-83
2021/12/03 02:14:30;;;;;;;6.22;5.28;;;;;;;;;;5062471;28;20640;-83
2021/12/03 02:16:56;;;;;;;9.68;4.50;;;;;;;;;;5062405;28;20587;-83
2021/12/03 02:19:22;;;;;;;10.25;4.75;;;;;;;;;;5061620;28;20243;-83
2021/12/03 02:21:49;;;;;;;5.38;4.30;;;;;;;;;;5060714;28;20208;-83
2021/12/03 02:24:15;;;;;;;8.30;5.05;;;;;;;;;;5063877;28;20177;-83
2021/12/03 02:26:42;;;;;;;5.38;4.40;;;;;;;;;;5062210;28;20181;-83
2021/12/03 02:29:08;;;;;;;6.50;3.90;;;;;;;;;;5061559;28;20194;-82
2021/12/03 02:31:34;;;;;;;7.05;4.90;;;;;;;;;;5064135;28;20180;-83
2021/12/03 02:34:00;;;;;;;7.00;4.20;;;;;;;;;;5063468;28;20543;-83
2021/12/03 02:36:26;;;;;;;8.93;4.75;;;;;;;;;;5063174;28;20197;-83
2021/12/03 02:38:53;;;;;;;6.13;4.50;;;;;;;;;;5063042;28;20277;-83
2021/12/03 02:41:19;;;;;;;7.07;4.63;;;;;;;;;;5061629;28;20181;-83
2021/12/03 02:43:45;;;;;;;8.65;4.85;;;;;;;;;;5064342;28;20204;-81
2021/12/03 02:46:11;;;;;;;10.18;4.80;;;;;;;;;;5060303;28;20519;-82
2021/12/03 02:48:38;;;;;;;10.32;5.85;;;;;;;;;;5063466;28;20228;-83
2021/12/03 02:51:05;;;;;;;8.20;5.20;;;;;;;;;;5062925;28;20193;-82
2021/12/03 02:53:31;;;;;;;7.80;4.55;;;;;;;;;;5061603;28;20186;-82
2021/12/03 02:55:58;;;;;;;5.93;3.97;;;;;;;;;;5062603;28;20173;-82
2021/12/03 02:58:23;;;;;;;7.07;4.25;;;;;;;;;;5063643;28;20177;-79
2021/12/03 03:00:51;;;;;;;7.00;4.90;;;;;;;;;;5060371;28;20272;-82
2021/12/03 03:03:17;;;;;;;7.72;4.90;;;;;;;;;;5062777;28;20180;-82
2021/12/03 03:05:47;;;;;;;10.35;5.65;;;;;;;;;;5061346;28;20178;-82
2021/12/03 03:08:13;;;;;;;5.50;4.68;;;;;;;;;;5060581;28;20189;-82
2021/12/03 03:10:42;;;;;;;10.25;4.93;;;;;;;;;;5063760;28;20656;-82
2021/12/03 03:13:08;;;;;;;6.28;5.45;;;;;;;;;;5058050;28;20181;-82
2021/12/03 03:15:34;;;;;;;12.25;6.57;;;;;;;;;;5056524;28;20614;-82
2021/12/03 03:18:08;;;;;;;11.25;4.95;;;;;;;;;;5062459;28;20243;-83
2021/12/03 03:20:34;;;;;;;5.47;4.03;;;;;;;;;;5060893;28;20213;-82
2021/12/03 03:23:00;;;;;;;9.50;4.45;;;;;;;;;;5063828;28;20178;-81
2021/12/03 03:25:26;;;;;;;6.30;4.55;;;;;;;;;;5061435;28;20180;-81
2021/12/03 03:27:52;;;;;;;8.30;5.93;;;;;;;;;;5061321;28;20185;-83
2021/12/03 03:30:19;;;;;;;8.35;4.72;;;;;;;;;;5063246;28;20183;-82
2021/12/03 03:32:45;;;;;;;9.25;4.97;;;;;;;;;;5061936;28;20177;-83
2021/12/03 03:35:12;;;;;;;4.80;3.90;;;;;;;;;;5061239;28;20704;-81
2021/12/03 03:37:38;;;;;;;5.75;3.85;;;;;;;;;;5052383;28;20182;-82
2021/12/03 03:40:04;;;;;;;5.70;4.22;;;;;;;;;;5072210;28;20213;-82
2021/12/03 03:42:31;;;;;;;4.65;3.83;;;;;;;;;;5070043;28;20213;-82
2021/12/03 03:44:57;;;;;;;6.30;4.20;;;;;;;;;;5061833;28;20177;-79
2021/12/03 03:47:23;;;;;;;10.88;4.80;;;;;;;;;;5061410;28;20248;-82
2021/12/03 03:49:49;;;;;;;6.40;3.85;;;;;;;;;;5063541;28;20177;-80
2021/12/03 03:52:15;;;;;;;6.68;3.67;;;;;;;;;;5061098;28;20244;-81
2021/12/03 03:54:41;;;;;;;7.03;4.20;;;;;;;;;;5062039;28;20185;-82
2021/12/03 03:57:07;;;;;;;10.75;4.40;;;;;;;;;;5060671;28;20211;-82
2021/12/03 03:59:33;;;;;;;4.97;3.17;;;;;;;;;;5059761;28;20202;-83
2021/12/03 04:01:59;;;;;;;4.15;3.05;;;;;;;;;;5061651;28;20181;-82
2021/12/03 04:04:25;;;;;;;8.38;3.10;;;;;;;;;;5062058;28;20173;-82
2021/12/03 04:06:52;;;;;;;12.52;4.25;;;;;;;;;;5061436;28;20177;-81
2021/12/03 04:09:18;;;;;;;5.20;3.83;;;;;;;;;;5061753;28;20732;-82
2021/12/03 04:11:44;;;;;;;4.75;3.38;;;;;;;;;;5059701;28;20195;-82
2021/12/03 04:14:10;;;;;;;4.78;3.67;;;;;;;;;;5060028;28;20182;-83
2021/12/03 04:16:36;;;;;;;9.18;3.42;;;;;;;;;;5061285;28;20169;-83
2021/12/03 04:19:02;;;;;;;7.00;3.65;;;;;;;;;;5059420;28;20232;-82
2021/12/03 04:21:28;;;;;;;7.20;3.30;;;;;;;;;;5059482;28;20196;-81
2021/12/03 04:23:54;;;;;;;4.45;3.22;;;;;;;;;;5061721;28;20681;-82
2021/12/03 04:26:20;;;;;;;8.40;3.17;;;;;;;;;;5060279;28;20197;-81
2021/12/03 04:28:47;;;;;;;4.10;3.70;;;;;;;;;;5062457;28;20231;-82
2021/12/03 04:31:13;;;;;;;8.45;3.33;;;;;;;;;;5060367;28;20180;-81
2021/12/03 04:33:39;;;;;;;6.70;3.50;;;;;;;;;;5060943;28;20284;-80
2021/12/03 04:36:05;;;;;;;5.97;4.03;;;;;;;;;;5060002;28;20184;-82
2021/12/03 04:38:31;;;;;;;4.63;3.70;;;;;;;;;;5059144;28;20327;-83
2021/12/03 04:41:01;;;;;;;6.05;3.25;;;;;;;;;;5060730;28;20180;-83
2021/12/03 04:43:27;;;;;;;10.85;4.25;;;;;;;;;;5060418;28;20157;-83
2021/12/03 04:45:53;;;;;;;5.22;3.78;;;;;;;;;;5060717;28;20231;-83
2021/12/03 04:48:19;;;;;;;6.72;3.00;;;;;;;;;;5059066;28;20184;-82
2021/12/03 04:50:46;;;;;;;8.52;4.03;;;;;;;;;;5061077;28;20214;-78
2021/12/03 04:53:12;;;;;;;7.45;3.28;;;;;;;;;;5059971;28;20185;-80
2021/12/03 04:55:38;;;;;;;4.63;2.90;;;;;;;;;;5061611;28;20625;-82
2021/12/03 04:58:05;;;;;;;3.15;2.85;;;;;;;;;;5060883;28;20189;-82
2021/12/03 05:00:31;;;;;;;5.28;3.25;;;;;;;;;;5060999;28;20205;-82
2021/12/03 05:02:57;;;;;;;4.83;2.97;;;;;;;;;;5059780;28;20197;-83
2021/12/03 05:05:26;;;;;;;4.55;3.40;;;;;;;;;;5060864;28;20503;-81
2021/12/03 05:07:58;;;;;;;4.88;2.80;;;;;;;;;;5061528;28;20173;-82
2021/12/03 05:10:25;;;;;;;4.60;3.05;;;;;;;;;;5061753;28;20177;-83
2021/12/03 05:12:52;;;;;;;4.88;3.28;;;;;;;;;;5059267;28;20190;-83
2021/12/03 05:15:18;;;;;;;9.38;3.33;;;;;;;;;;5061218;28;20185;-83
2021/12/03 05:17:44;;;;;;;4.40;3.03;;;;;;;;;;5059142;28;20220;-84
2021/12/03 05:20:10;;;;;;;4.88;2.65;;;;;;;;;;5058616;28;20201;-82
2021/12/03 05:22:36;;;;;;;4.45;3.47;;;;;;;;;;5060820;28;20173;-81
2021/12/03 05:25:03;;;;;;;3.17;2.88;;;;;;;;;;5058648;28;20207;-83
2021/12/03 05:27:29;;;;;;;4.43;2.40;;;;;;;;;;5059066;28;20188;-81
2021/12/03 05:29:55;;;;;;;6.13;3.53;;;;;;;;;;5060692;28;20184;-82
2021/12/03 05:32:21;;;;;;;4.15;1.70;;;;;;;;;;5060999;28;20260;-83
2021/12/03 05:34:47;;;;;;;2.33;2.08;;;;;;;;;;5062564;28;20181;-82
2021/12/03 05:37:13;;;;;;;6.18;2.88;;;;;;;;;;5070915;28;20181;-83
2021/12/03 05:39:39;;;;;;;9.68;2.83;;;;;;;;;;5072780;28;20208;-82
2021/12/03 05:42:05;;;;;;;7.50;3.70;;;;;;;;;;5064673;28;20185;-83
2021/12/03 05:44:32;;;;;;;4.93;2.78;;;;;;;;;;5062967;28;20182;-82
2021/12/03 05:46:58;;;;;;;7.57;2.40;;;;;;;;;;5064712;28;20204;-83
2021/12/03 05:49:25;;;;;;;2.58;2.30;;;;;;;;;;5064666;28;20177;-83
2021/12/03 05:51:51;;;;;;;3.83;2.55;;;;;;;;;;5064164;28;20269;-81
2021/12/03 05:54:17;;;;;;;4.30;2.92;;;;;;;;;;5062497;28;20181;-84
2021/12/03 05:56:43;;;;;;;4.10;2.58;;;;;;;;;;5064340;28;20184;-84
2021/12/03 05:59:09;;;;;;;6.75;3.08;;;;;;;;;;5062048;28;20670;-83
2021/12/03 06:01:35;;;;;;;8.55;3.25;;;;;;;;;;5064399;28;20169;-83
2021/12/03 06:04:01;;;;;;;4.53;2.45;;;;;;;;;;5062066;28;20181;-84
2021/12/03 06:06:27;;;;;;;3.35;2.30;;;;;;;;;;5061943;28;20235;-82
2021/12/03 06:08:53;;;;;;;7.13;2.40;;;;;;;;;;5063604;28;20188;-83
2021/12/03 06:11:19;;;;;;;3.40;2.80;;;;;;;;;;5064263;28;20189;-81
2021/12/03 06:13:45;;;;;;;4.95;2.80;;;;;;;;;;5066018;28;20169;-79
2021/12/03 06:16:12;;;;;;;2.95;1.90;;;;;;;;;;5074336;28;20177;-83
2021/12/03 06:18:38;;;;;;;10.38;2.80;;;;;;;;;;5072564;28;20227;-83
2021/12/03 06:21:06;;;;;;;5.55;2.30;;;;;;;;;;5062409;28;20185;-81
2021/12/03 06:23:32;;;;;;;5.43;2.88;;;;;;;;;;5064184;28;20184;-84
2021/12/03 06:26:00;;;;;;;2.55;2.10;;;;;;;;;;5064170;28;20280;-83
2021/12/03 06:28:26;;;;;;;3.10;2.22;;;;;;;;;;5061744;28;20528;-83
2021/12/03 06:30:52;;;;;;;2.58;2.13;;;;;;;;;;5063502;28;20188;-81
2021/12/03 06:33:19;;;;;;;6.47;2.53;;;;;;;;;;5061700;28;20181;-82
2021/12/03 06:35:45;;;;;;;2.30;2.10;;;;;;;;;;5063230;28;20200;-84
2021/12/03 06:38:11;;;;;;;3.20;2.45;;;;;;;;;;5062012;28;20641;-83
2021/12/03 06:40:37;;;;;;;4.82;3.05;;;;;;;;;;5065452;28;20204;-82
2021/12/03 06:43:03;;;;;;;6.25;3.22;;;;;;;;;;5063245;28;20188;-82
2021/12/03 06:45:29;;;;;;;4.30;2.38;;;;;;;;;;5062724;28;20630;-84
2021/12/03 06:47:55;;;;;;;4.70;2.47;;;;;;;;;;5061193;28;20264;-83
2021/12/03 06:50:23;;;;;;;2.40;2.20;;;;;;;;;;5059804;28;20188;-80
2021/12/03 06:52:56;;;;;;;3.75;2.20;;;;;;;;;;5063364;28;20189;-81
2021/12/03 06:55:22;;;;;;;2.10;1.75;;;;;;;;;;5064652;28;20173;-82
2021/12/03 06:57:48;;;;;;;4.30;2.47;;;;;;;;;;5062994;28;20192;-85
2021/12/03 07:00:15;;;;;;;4.78;1.95;;;;;;;;;;5062617;28;20205;-84
2021/12/03 07:02:41;;;;;;;4.80;2.25;;;;;;;;;;5063582;28;20201;-83
2021/12/03 07:05:08;;;;;;;8.07;2.92;;;;;;;;;;5060949;28;20185;-83
2021/12/03 07:07:35;;;;;;;5.65;2.30;;;;;;;;;;5063648;28;20219;-83
2021/12/03 07:10:01;;;;;;;2.53;1.63;;;;;;;;;;5060588;28;20223;-82
2021/12/03 07:12:27;;;;;;;2.58;1.98;;;;;;;;;;5059532;28;20185;-82
2021/12/03 07:14:53;;;;;;;4.45;2.60;;;;;;;;;;5062228;28;20760;-82
2021/12/03 07:17:20;;;;;;;3.10;1.92;;;;;;;;;;5059524;28;20184;-83
2021/12/03 07:19:46;;;;;;;3.92;1.90;;;;;;;;;;5062527;28;20207;-83
2021/12/03 07:22:12;;;;;;;3.97;2.25;;;;;;;;;;5060895;28;20181;-78
2021/12/03 07:24:38;;;;;;;6.38;2.83;;;;;;;;;;5062928;28;20180;-81
2021/12/03 07:27:05;;;;;;;2.22;2.03;;;;;;;;;;5062316;28;20185;-83
2021/12/03 07:29:32;;;;;;;3.65;1.85;;;;;;;;;;5060835;28;20205;-85
2021/12/03 07:31:58;;;;;;;4.53;2.33;;;;;;;;;;5061632;28;20197;-83
2021/12/03 07:34:24;;;;;;;3.20;2.22;;;;;;;;;;5062623;28;20185;-84
2021/12/03 07:36:50;;;;;;;3.72;1.80;;;;;;;;;;5062265;28;20184;-83
2021/12/03 07:39:16;;;;;;;3.85;2.20;;;;;;;;;;5061231;28;20208;-84
2021/12/03 07:41:42;;;;;;;2.67;2.08;;;;;;;;;;5060426;28;20177;-84
2021/12/03 07:44:09;;;;;;;4.53;2.08;;;;;;;;;;5061546;28;20174;-84
2021/12/03 07:46:35;;;;;;;4.07;2.20;;;;;;;;;;5071196;28;20623;-84
2021/12/03 07:49:02;;;;;;;4.40;1.75;;;;;;;;;;5060615;28;20197;-84
2021/12/03 07:51:28;;;;;;;2.88;1.75;;;;;;;;;;5061005;28;20197;-84
2021/12/03 07:53:54;;;;;;;3.10;1.75;;;;;;;;;;5061094;28;20204;-83
2021/12/03 07:56:20;;;;;;;6.40;2.00;;;;;;;;;;5061137;28;20205;-82
2021/12/03 07:58:46;;;;;;;4.57;2.15;;;;;;;;;;5059052;28;20281;-79
2021/12/03 08:01:13;;;;;;;5.35;2.22;;;;;;;;;;5056020;28;20220;-82
2021/12/03 08:03:40;;;;;;;5.75;2.03;;;;;;;;;;5052904;28;20177;-80
2021/12/03 08:06:09;;;;;;;2.70;2.25;;;;;;;;;;5058009;28;20194;-82
2021/12/03 08:08:39;;;;;;;2.47;1.63;;;;;;;;;;5059653;28;20654;-80
2021/12/03 08:11:05;;;;;;;2.97;1.77;;;;;;;;;;5052709;28;20335;-81
2021/12/03 08:13:33;;;;;;;2.50;2.05;;;;;;;;;;5073645;28;20355;-82
2021/12/03 08:15:59;;;;;;;6.57;2.22;;;;;;;;;;5054486;28;20173;-82
2021/12/03 08:18:25;;;;;;;4.78;1.95;;;;;;;;;;5060255;28;20216;-81
2021/12/03 08:20:52;;;;;;;7.13;2.17;;;;;;;;;;5058810;28;20204;-80
2021/12/03 08:23:19;;;;;;;3.00;1.70;;;;;;;;;;5057599;28;20646;-81
2021/12/03 08:25:45;;;;;;;5.88;2.58;;;;;;;;;;5059772;28;20210;-81
2021/12/03 08:28:12;;;;;;;9.20;2.20;;;;;;;;;;5068705;28;20444;-82
2021/12/03 08:30:38;;;;;;;3.88;1.85;;;;;;;;;;5051316;28;20622;-81
2021/12/03 08:33:04;;;;;;;2.65;1.92;;;;;;;;;;5057955;28;20189;-81
2021/12/03 08:35:30;;;;;;;3.08;1.67;;;;;;;;;;5056218;28;20306;-79
2021/12/03 08:37:57;;;;;;;4.65;1.90;;;;;;;;;;5058637;28;20177;-82
2021/12/03 08:40:24;;;;;;;7.45;2.00;;;;;;;;;;5056085;28;20216;-82
2021/12/03 08:42:50;;;;;;;3.58;1.90;;;;;;;;;;5059002;28;20173;-83
2021/12/03 08:45:18;;;;;;;3.20;2.20;;;;;;;;;;5069131;28;20177;-81
2021/12/03 08:47:48;;;;;;;5.07;2.28;;;;;;;;;;5051652;28;20173;-82
2021/12/03 08:50:21;;;;;;;5.57;2.60;;;;;;;;;;5043772;28;20185;-81
2021/12/03 08:55:16;;;;;;;1.90;1.67;;;;;;;;;;5060610;28;20181;-80
2021/12/03 08:57:42;;;;;;;7.32;1.80;;;;;;;;;;5068713;28;20208;-81
2021/12/03 09:00:11;;;;;;;3.25;1.50;;;;;;;;;;5060073;28;20232;-80
2021/12/03 09:02:37;;;;;;;4.65;2.83;;;;;;;;;;5058409;28;20211;-80
2021/12/03 09:05:04;;;;;;;2.80;1.75;;;;;;;;;;5060992;28;20192;-80
2021/12/03 09:07:30;;;;;;;7.97;1.98;;;;;;;;;;5060795;28;20183;-82
2021/12/03 09:09:57;;;;;;;2.65;1.70;;;;;;;;;;5060668;28;20208;-81
2021/12/03 09:12:23;;;;;;;4.70;2.22;;;;;;;;;;5061555;28;20181;-81
2021/12/03 09:14:55;;;;;;;5.85;4.22;;;;;;;;;;5061684;28;20207;-81
2021/12/03 09:17:37;;;;;;;6.97;2.25;;;;;;;;;;5048895;28;20173;-83
2021/12/03 09:25:05;;;;;;;7.70;2.63;;;;;;;;;;5062363;28;20185;-80
2021/12/03 09:27:31;;;;;;;2.75;2.13;;;;;;;;;;5060672;28;20181;-77
2021/12/03 09:29:57;;;;;;;3.75;2.00;;;;;;;;;;5063855;28;20184;-80
2021/12/03 09:32:29;;;;;;;5.25;2.42;;;;;;;;;;5063727;28;20216;-82
2021/12/03 09:34:55;;;;;;;2.55;1.85;;;;;;;;;;5064112;28;20183;-82
2021/12/03 09:37:22;;;;;;;8.90;2.78;;;;;;;;;;5052098;28;20174;-79
2021/12/03 09:39:48;;;;;;;4.30;2.00;;;;;;;;;;5061361;28;20206;-79
2021/12/03 09:42:18;;;;;;;2.42;2.20;;;;;;;;;;5061393;28;20177;-80
2021/12/03 09:44:45;;;;;;;7.75;2.50;;;;;;;;;;5060977;28;20182;-79
2021/12/03 09:47:12;;;;;;;3.60;2.05;;;;;;;;;;5061661;28;20201;-79
2021/12/03 09:49:39;;;;;;;3.80;2.08;;;;;;;;;;5064554;28;20178;-78
2021/12/03 09:54:41;;;;;;;2.92;2.13;;;;;;;;;;5062280;28;20598;-78
2021/12/03 09:57:13;;;;;;;3.95;1.83;;;;;;;;;;5062137;28;20185;-81
2021/12/03 10:02:31;;;;;;;4.10;2.00;;;;;;;;;;5062475;28;20648;-80
2021/12/03 10:05:33;;;;;;;4.03;2.70;;;;;;;;;;5077807;28;20227;-79
2021/12/03 10:15:56;;;;;;;4.65;1.90;;;;;;;;;;5061724;28;20253;-81
2021/12/03 10:18:33;;;;;;;3.67;1.90;;;;;;;;;;5062994;28;20215;-82
2021/12/03 10:21:11;;;;;;;3.92;1.92;;;;;;;;;;5061719;28;20195;-80
2021/12/03 10:29:34;;;;;;;3.85;1.65;;;;;;;;;;5061934;28;20200;-81
2021/12/03 10:34:55;;;;;;;4.15;2.40;;;;;;;;;;5065852;28;20177;-82
2021/12/03 10:43:08;;;;;;;5.60;2.00;;;;;;;;;;5042098;28;20595;-84
2021/12/03 10:48:31;;;;;;;2.45;1.63;;;;;;;;;;4982949;28;20179;-85
2021/12/03 10:51:11;;;;;;;2.17;1.83;;;;;;;;;;4979912;28;20187;-86
2021/12/03 10:53:44;;;;;;;2.17;1.80;;;;;;;;;;4980215;28;20280;-85
2021/12/03 10:56:39;;;;;;;3.78;1.67;;;;;;;;;;4981491;28;20225;-86
2021/12/03 11:02:27;;;;;;;2.53;1.60;;;;;;;;;;4980086;28;20243;-83
2021/12/03 11:37:43;;;;;;;2.60;1.25;;;;;;;;;;5000523;28;20253;-87
2021/12/03 12:28:23;;;;;;;6.20;1.45;;;;;;;;;;5010614;28;20190;-86
2021/12/03 13:33:15;;;;;;;3.03;2.13;;;;;;;;;;5023783;28;20250;-87
2021/12/03 14:43:08;;;;;;;3.05;1.50;;;;;;;;;;5063803;28;20220;-82
2021/12/03 14:45:51;;;;;;;1.30;1.20;;;;;;;;;;5062927;28;20211;-82
2021/12/03 14:51:25;;;;;;;1.27;1.10;;;;;;;;;;5060956;28;20192;-83
2021/12/03 14:54:29;;;;;;;1.20;1.10;;;;;;;;;;5061112;28;20169;-80
2021/12/03 14:57:59;;;;;;;1.60;1.40;;;;;;;;;;5062804;28;20181;-80
2021/12/03 15:08:04;;;;;;;1.98;1.38;;;;;;;;;;5063397;28;20177;-79
2021/12/03 15:29:50;;;;;;;1.85;1.75;;;;;;;;;;5044250;28;20236;-83
2021/12/03 15:32:29;;;;;;;2.38;2.17;;;;;;;;;;5050247;28;20236;-83
2021/12/03 16:04:36;;;;;;;1.40;1.30;;;;;;;;;;5063938;28;20216;-84
2021/12/03 16:17:31;;;;;;;1.30;1.10;;;;;;;;;;5060366;28;20188;-84
2021/12/03 16:54:11;;;;;;;0.90;0.80;;;;;;;;;;5034352;28;20209;-86
2021/12/03 16:56:44;;;;;;;3.35;1.10;;;;;;;;;;5021186;28;20187;-83
2021/12/03 16:59:10;;;;;;;1.50;1.40;;;;;;;;;;5037015;28;20229;-85
2021/12/03 17:01:42;;;;;;;2.72;1.52;;;;;;;;;;5040546;28;20269;-86
2021/12/03 17:30:57;;;;;;;1.70;1.40;;;;;;;;;;5057550;28;20208;-83
2021/12/03 17:49:37;;;;;;;1.95;1.75;;;;;;;;;;5061351;28;20188;-84
2021/12/03 17:55:10;;;;;;;2.63;1.90;;;;;;;;;;5056058;28;20268;-85
2021/12/03 18:00:24;;;;;;;2.33;1.75;;;;;;;;;;5062553;28;20212;-88
2021/12/03 18:02:53;;;;;;;1.98;1.80;;;;;;;;;;5063706;28;20185;-88
2021/12/03 18:07:53;;;;;;;1.92;1.60;;;;;;;;;;5067053;28;20173;-88
2021/12/03 18:54:02;;;;;;;4.10;3.70;;;;;;;;;;5005265;28;20183;-88
2021/12/03 18:58:57;;;;;;;4.47;3.10;;;;;;;;;;5023380;28;20209;-92
2021/12/03 19:01:29;;;;;;;4.68;2.97;;;;;;;;;;5004968;28;20422;-87
2021/12/03 19:06:48;;;;;;;4.50;3.10;;;;;;;;;;5058773;28;20662;-90
2021/12/03 19:10:01;;;;;;;3.55;3.03;;;;;;;;;;5062460;28;20195;-90
2021/12/03 19:12:16;;;;;;;3.15;2.85;;;;;;;;;;5062053;28;20193;-88
2021/12/03 19:14:49;;;;;;;2.97;2.78;;;;;;;;;;5063086;28;20185;-92
2021/12/03 19:17:15;;;;;;;4.47;3.70;;;;;;;;;;5060825;28;20185;-89
2021/12/03 19:19:44;;;;;;;2.80;2.60;;;;;;;;;;5063571;28;20228;-87
2021/12/03 19:22:10;;;;;;;4.63;4.18;;;;;;;;;;5062218;28;20185;-87
2021/12/03 19:24:36;;;;;;;3.45;3.10;;;;;;;;;;5058322;28;20181;-90
2021/12/03 19:27:02;;;;;;;7.95;7.25;;;;;;;;;;5067274;28;20523;-89
2021/12/03 19:29:31;;;;;;;6.45;5.28;;;;;;;;;;5061344;28;20189;-86
2021/12/03 19:31:57;;;;;;;20.70;17.25;;;;;;;;;;5061187;28;20184;-87
2021/12/03 19:34:23;;;;;;;5.03;4.45;;;;;;;;;;5060610;28;20212;-86
2021/12/03 19:36:50;;;;;;;10.02;9.18;;;;;;;;;;5055453;28;20201;-88
2021/12/03 19:39:17;;;;;;;12.55;11.40;;;;;;;;;;5059730;28;20192;-89
2021/12/03 19:42:08;;;;;;;5.22;4.72;;;;;;;;;;5055110;28;20194;-90
2021/12/03 19:44:41;;;;;;;7.40;6.90;;;;;;;;;;5061825;28;20190;-89
2021/12/03 19:47:08;;;;;;;6.70;5.65;;;;;;;;;;5069083;28;20169;-87
2021/12/03 19:52:09;;;;;;;28.33;26.48;;;;;;;;;;5051494;28;20234;-92
2021/12/03 19:54:35;;;;;;;21.73;20.27;;;;;;;;;;5069858;28;20180;-89
2021/12/03 19:57:01;;;;;;;15.05;13.70;;;;;;;;;;5061538;28;20212;-88
2021/12/03 19:59:27;;;;;;;7.57;5.70;;;;;;;;;;5061010;28;20216;-88
2021/12/03 20:01:53;;;;;;;4.65;4.03;;;;;;;;;;5062642;28;20207;-87
2021/12/03 20:04:19;;;;;;;6.78;6.18;;;;;;;;;;5062160;28;20173;-86
2021/12/03 20:06:46;;;;;;;8.52;6.63;;;;;;;;;;5054919;28;20178;-87
2021/12/03 20:09:18;;;;;;;5.35;4.63;;;;;;;;;;5055148;28;20204;-87
2021/12/03 20:11:48;;;;;;;9.20;8.48;;;;;;;;;;5060084;28;20314;-89
2021/12/03 20:14:16;;;;;;;4.80;4.40;;;;;;;;;;5075177;28;20185;-87
2021/12/03 20:16:50;;;;;;;7.88;7.28;;;;;;;;;;5065933;28;20653;-88
2021/12/03 20:19:29;;;;;;;9.43;8.68;;;;;;;;;;5056137;28;20221;-89
2021/12/03 20:22:00;;;;;;;7.78;6.95;;;;;;;;;;5059421;28;20193;-91
2021/12/03 20:26:58;;;;;;;8.07;7.37;;;;;;;;;;5061846;28;20242;-92
2021/12/03 20:37:23;;;;;;;10.10;9.20;;;;;;;;;;5060776;28;20646;-89
2021/12/03 20:39:51;;;;;;;4.90;4.28;;;;;;;;;;5061602;28;20230;-90
2021/12/03 21:08:47;;;;;;;3.25;2.95;;;;;;;;;;5062257;28;20219;-93
2021/12/03 21:11:27;;;;;;;4.47;3.95;;;;;;;;;;5074106;28;20216;-92
2021/12/03 21:13:58;;;;;;;5.78;4.13;;;;;;;;;;5062505;28;20207;-93
2021/12/03 21:19:43;;;;;;;6.38;3.60;;;;;;;;;;5066657;28;20236;-90
2021/12/03 21:22:06;;;;;;;6.97;4.55;;;;;;;;;;5059561;28;20216;-87
2021/12/03 21:24:35;;;;;;;4.30;3.90;;;;;;;;;;5065767;28;20185;-89
2021/12/03 21:27:07;;;;;;;5.00;4.15;;;;;;;;;;5066639;28;20180;-92
2021/12/03 21:42:50;;;;;;;5.95;4.18;;;;;;;;;;5023891;28;20186;-88
2021/12/03 21:45:16;;;;;;;6.10;5.00;;;;;;;;;;5022663;28;20331;-91
2021/12/03 21:47:42;;;;;;;4.75;4.35;;;;;;;;;;5023195;28;20452;-89
2021/12/03 21:50:08;;;;;;;7.57;6.07;;;;;;;;;;5014780;28;20218;-89
2021/12/03 21:52:34;;;;;;;7.20;6.53;;;;;;;;;;5026251;28;20196;-90
2021/12/03 21:55:06;;;;;;;6.60;5.65;;;;;;;;;;5016502;28;20195;-90
2021/12/03 21:57:32;;;;;;;6.75;5.45;;;;;;;;;;5023372;28;20183;-86
2021/12/03 21:59:59;;;;;;;8.02;6.00;;;;;;;;;;5024759;28;20717;-87
2021/12/03 22:02:25;;;;;;;7.53;5.70;;;;;;;;;;5032506;28;20273;-87
2021/12/03 22:04:50;;;;;;;7.68;4.95;;;;;;;;;;5023854;28;20209;-90
2021/12/03 22:07:16;;;;;;;6.30;5.50;;;;;;;;;;5012066;28;20627;-90
2021/12/03 22:09:42;;;;;;;7.47;4.97;;;;;;;;;;5002057;28;20468;-89
2021/12/03 22:12:09;;;;;;;8.15;5.55;;;;;;;;;;5010506;28;20449;-91
2021/12/03 22:14:38;;;;;;;7.40;4.72;;;;;;;;;;5047400;28;20220;-88
2021/12/03 22:17:04;;;;;;;7.60;5.15;;;;;;;;;;5064237;28;20177;-85
2021/12/03 22:19:30;;;;;;;11.93;5.70;;;;;;;;;;5059038;28;20229;-89
2021/12/03 22:21:56;;;;;;;6.68;5.38;;;;;;;;;;5075952;28;20177;-90
2021/12/03 22:24:22;;;;;;;7.35;4.90;;;;;;;;;;5065073;28;20200;-90
2021/12/03 22:26:48;;;;;;;7.65;5.03;;;;;;;;;;5063674;28;20177;-90
2021/12/03 22:29:14;;;;;;;7.13;5.53;;;;;;;;;;5063581;28;20181;-88
2021/12/03 22:31:40;;;;;;;6.28;4.70;;;;;;;;;;5066270;28;20177;-89
2021/12/03 22:34:06;;;;;;;8.65;5.40;;;;;;;;;;5064621;28;20192;-88
2021/12/03 22:36:32;;;;;;;6.38;5.07;;;;;;;;;;5064902;28;20186;-88
2021/12/03 22:38:58;;;;;;;6.28;5.40;;;;;;;;;;5064266;28;20177;-87
2021/12/03 22:41:25;;;;;;;8.50;5.60;;;;;;;;;;5057159;28;20204;-85
2021/12/03 22:43:53;;;;;;;5.35;4.60;;;;;;;;;;5061066;28;20162;-89
2021/12/03 22:51:57;;;;;;;5.35;3.60;;;;;;;;;;5056269;28;20203;-88
2021/12/03 22:54:23;;;;;;;12.63;4.80;;;;;;;;;;5064024;28;20172;-86
2021/12/03 22:56:49;;;;;;;14.95;4.55;;;;;;;;;;5062865;28;20181;-87
2021/12/03 22:59:15;;;;;;;3.30;3.00;;;;;;;;;;5062862;28;20204;-87
2021/12/03 23:01:41;;;;;;;8.65;4.10;;;;;;;;;;5064216;28;20169;-85
2021/12/03 23:04:07;;;;;;;4.13;3.72;;;;;;;;;;5063056;28;20187;-85
2021/12/03 23:06:34;;;;;;;3.70;3.05;;;;;;;;;;5062620;28;20264;-85
2021/12/03 23:09:00;;;;;;;3.03;2.60;;;;;;;;;;5063537;28;20173;-88
2021/12/03 23:11:26;;;;;;;3.35;3.05;;;;;;;;;;5063269;28;20181;-89
2021/12/03 23:13:52;;;;;;;2.08;1.98;;;;;;;;;;5063532;28;20175;-87
2021/12/03 23:16:19;;;;;;;6.93;2.78;;;;;;;;;;5061568;28;20173;-86
2021/12/03 23:18:45;;;;;;;2.10;1.90;;;;;;;;;;5063537;28;20247;-89
2021/12/03 23:21:11;;;;;;;3.35;2.05;;;;;;;;;;5060464;28;20292;-86